sensor_id;sensor_type;location;lat;lon;timestamp;pressure;altitude;pressure_sealevel;temperature;humidity
35507;BME280;36461;52.018;21.036;2022-09-28T00:02:19;98521.87;;;12.15;91.74
35507;BME280;36461;52.018;21.036;2022-09-28T00:04:46;98522.46;;;12.13;91.81
35507;BME280;36461;52.018;21.036;2022-09-28T00:07:12;98514.03;;;12.09;91.87
35507;BME280;36461;52.018;21.036;2022-09-28T00:09:39;98523.50;;;12.10;91.97
35507;BME280;36461;52.018;21.036;2022-09-28T00:12:05;98526.10;;;12.10;92.00
35507;BME280;36461;52.018;21.036;2022-09-28T00:14:32;98521.83;;;12.09;92.05
35507;BME280;36461;52.018;21.036;2022-09-28T00:16:59;98524.80;;;12.10;92.12
35507;BME280;36461;52.018;21.036;2022-09-28T00:19:25;98528.78;;;12.08;91.99
35507;BME280;36461;52.018;21.036;2022-09-28T00:21:51;98523.53;;;12.03;91.78
35507;BME280;36461;52.018;21.036;2022-09-28T00:24:18;98518.92;;;12.01;92.04
35507;BME280;36461;52.018;21.036;2022-09-28T00:26:52;98514.87;;;11.97;91.99
35507;BME280;36461;52.018;21.036;2022-09-28T00:29:23;98510.42;;;11.91;91.97
35507;BME280;36461;52.018;21.036;2022-09-28T00:31:56;98508.22;;;11.85;91.68
35507;BME280;36461;52.018;21.036;2022-09-28T00:34:25;98506.87;;;11.80;91.87
35507;BME280;36461;52.018;21.036;2022-09-28T00:36:52;98507.43;;;11.78;91.98
35507;BME280;36461;52.018;21.036;2022-09-28T00:39:19;98506.08;;;11.72;91.95
35507;BME280;36461;52.018;21.036;2022-09-28T00:41:46;98500.63;;;11.69;91.87
35507;BME280;36461;52.018;21.036;2022-09-28T00:44:47;98502.03;;;11.68;92.01
35507;BME280;36461;52.018;21.036;2022-09-28T00:52:21;98506.43;;;11.60;92.16
35507;BME280;36461;52.018;21.036;2022-09-28T00:57:40;98510.25;;;11.62;92.33
35507;BME280;36461;52.018;21.036;2022-09-28T01:00:10;98511.08;;;11.62;92.32
35507;BME280;36461;52.018;21.036;2022-09-28T01:02:38;98504.58;;;11.62;92.21
35507;BME280;36461;52.018;21.036;2022-09-28T01:05:05;98503.94;;;11.58;92.09
35507;BME280;36461;52.018;21.036;2022-09-28T01:07:32;98501.55;;;11.55;92.07
35507;BME280;36461;52.018;21.036;2022-09-28T01:10:00;98496.46;;;11.54;92.29
35507;BME280;36461;52.018;21.036;2022-09-28T01:12:28;98491.27;;;11.54;92.25
35507;BME280;36461;52.018;21.036;2022-09-28T01:14:54;98491.72;;;11.53;92.34
35507;BME280;36461;52.018;21.036;2022-09-28T01:17:28;98487.81;;;11.53;92.44
35507;BME280;36461;52.018;21.036;2022-09-28T01:20:22;98491.48;;;11.51;92.42
35507;BME280;36461;52.018;21.036;2022-09-28T01:25:57;98494.52;;;11.50;92.57
35507;BME280;36461;52.018;21.036;2022-09-28T01:28:40;98495.83;;;11.50;92.57
35507;BME280;36461;52.018;21.036;2022-09-28T01:31:09;98500.09;;;11.51;92.62
35507;BME280;36461;52.018;21.036;2022-09-28T01:33:41;98497.50;;;11.51;92.54
35507;BME280;36461;52.018;21.036;2022-09-28T01:36:21;98486.57;;;11.46;92.47
35507;BME280;36461;52.018;21.036;2022-09-28T01:38:50;98489.75;;;11.44;92.42
35507;BME280;36461;52.018;21.036;2022-09-28T01:41:18;98487.88;;;11.46;92.47
35507;BME280;36461;52.018;21.036;2022-09-28T01:43:54;98489.44;;;11.49;92.63
35507;BME280;36461;52.018;21.036;2022-09-28T01:46:23;98485.17;;;11.48;92.19
35507;BME280;36461;52.018;21.036;2022-09-28T01:48:56;98478.52;;;11.44;92.09
35507;BME280;36461;52.018;21.036;2022-09-28T01:54:10;98492.69;;;11.45;92.05
35507;BME280;36461;52.018;21.036;2022-09-28T01:56:47;98494.95;;;11.44;92.05
35507;BME280;36461;52.018;21.036;2022-09-28T01:59:13;98508.02;;;11.42;91.95
35507;BME280;36461;52.018;21.036;2022-09-28T02:04:18;98509.73;;;11.36;91.79
35507;BME280;36461;52.018;21.036;2022-09-28T02:06:57;98502.87;;;11.35;91.64
35507;BME280;36461;52.018;21.036;2022-09-28T02:09:37;98501.89;;;11.31;91.49
35507;BME280;36461;52.018;21.036;2022-09-28T02:12:02;98500.98;;;11.24;91.39
35507;BME280;36461;52.018;21.036;2022-09-28T02:14:36;98498.86;;;11.24;91.63
35507;BME280;36461;52.018;21.036;2022-09-28T02:17:05;98493.08;;;11.26;91.70
35507;BME280;36461;52.018;21.036;2022-09-28T02:19:32;98487.17;;;11.24;91.59
35507;BME280;36461;52.018;21.036;2022-09-28T02:24:54;98490.80;;;11.21;91.71
35507;BME280;36461;52.018;21.036;2022-09-28T02:30:22;98488.81;;;11.25;91.77
35507;BME280;36461;52.018;21.036;2022-09-28T02:32:50;98488.36;;;11.25;91.79
35507;BME280;36461;52.018;21.036;2022-09-28T02:35:20;98490.96;;;11.25;91.74
35507;BME280;36461;52.018;21.036;2022-09-28T02:37:48;98499.95;;;11.27;91.85
35507;BME280;36461;52.018;21.036;2022-09-28T02:40:16;98500.22;;;11.30;91.81
35507;BME280;36461;52.018;21.036;2022-09-28T02:48:23;98500.00;;;11.33;91.82
35507;BME280;36461;52.018;21.036;2022-09-28T02:58:55;98496.80;;;11.42;91.95
35507;BME280;36461;52.018;21.036;2022-09-28T03:01:29;98501.18;;;11.41;91.92
35507;BME280;36461;52.018;21.036;2022-09-28T03:04:10;98493.46;;;11.40;91.90
35507;BME280;36461;52.018;21.036;2022-09-28T03:06:46;98494.52;;;11.37;91.96
35507;BME280;36461;52.018;21.036;2022-09-28T03:09:36;98495.82;;;11.37;92.03
35507;BME280;36461;52.018;21.036;2022-09-28T03:12:09;98497.73;;;11.41;92.01
35507;BME280;36461;52.018;21.036;2022-09-28T03:14:33;98490.86;;;11.40;92.04
35507;BME280;36461;52.018;21.036;2022-09-28T03:17:00;98492.36;;;11.44;92.12
35507;BME280;36461;52.018;21.036;2022-09-28T03:19:27;98496.30;;;11.50;92.33
35507;BME280;36461;52.018;21.036;2022-09-28T03:21:56;98490.18;;;11.51;92.17
35507;BME280;36461;52.018;21.036;2022-09-28T03:24:23;98492.30;;;11.51;92.15
35507;BME280;36461;52.018;21.036;2022-09-28T03:26:50;98492.19;;;11.53;92.17
35507;BME280;36461;52.018;21.036;2022-09-28T03:29:18;98491.37;;;11.52;92.21
35507;BME280;36461;52.018;21.036;2022-09-28T03:31:49;98492.09;;;11.54;92.21
35507;BME280;36461;52.018;21.036;2022-09-28T03:34:16;98491.16;;;11.55;92.30
35507;BME280;36461;52.018;21.036;2022-09-28T03:36:42;98492.94;;;11.55;92.01
35507;BME280;36461;52.018;21.036;2022-09-28T03:39:09;98493.49;;;11.53;92.01
35507;BME280;36461;52.018;21.036;2022-09-28T03:41:35;98484.87;;;11.52;92.06
35507;BME280;36461;52.018;21.036;2022-09-28T03:44:03;98487.81;;;11.53;92.18
35507;BME280;36461;52.018;21.036;2022-09-28T03:46:30;98487.27;;;11.55;92.17
35507;BME280;36461;52.018;21.036;2022-09-28T03:48:58;98493.76;;;11.55;92.27
35507;BME280;36461;52.018;21.036;2022-09-28T03:51:25;98494.95;;;11.57;92.32
35507;BME280;36461;52.018;21.036;2022-09-28T03:53:52;98489.64;;;11.58;92.32
35507;BME280;36461;52.018;21.036;2022-09-28T03:56:19;98491.69;;;11.61;92.37
35507;BME280;36461;52.018;21.036;2022-09-28T03:58:46;98493.81;;;11.61;92.29
35507;BME280;36461;52.018;21.036;2022-09-28T04:01:13;98490.28;;;11.62;92.36
35507;BME280;36461;52.018;21.036;2022-09-28T04:03:44;98492.98;;;11.61;92.23
35507;BME280;36461;52.018;21.036;2022-09-28T04:06:11;98496.14;;;11.58;92.36
35507;BME280;36461;52.018;21.036;2022-09-28T04:08:39;98498.19;;;11.61;92.41
35507;BME280;36461;52.018;21.036;2022-09-28T04:11:05;98502.74;;;11.57;92.20
35507;BME280;36461;52.018;21.036;2022-09-28T04:13:32;98502.85;;;11.55;92.27
35507;BME280;36461;52.018;21.036;2022-09-28T04:15:59;98510.48;;;11.51;92.12
35507;BME280;36461;52.018;21.036;2022-09-28T04:18:28;98510.33;;;11.47;92.08
35507;BME280;36461;52.018;21.036;2022-09-28T04:23:34;98509.16;;;11.38;91.94
35507;BME280;36461;52.018;21.036;2022-09-28T04:26:02;98506.50;;;11.33;91.85
35507;BME280;36461;52.018;21.036;2022-09-28T04:28:31;98510.78;;;11.27;91.80
35507;BME280;36461;52.018;21.036;2022-09-28T04:31:17;98504.05;;;11.24;92.12
35507;BME280;36461;52.018;21.036;2022-09-28T04:33:45;98500.81;;;11.20;92.09
35507;BME280;36461;52.018;21.036;2022-09-28T04:36:11;98497.84;;;11.19;92.15
35507;BME280;36461;52.018;21.036;2022-09-28T04:38:38;98498.66;;;11.20;92.20
35507;BME280;36461;52.018;21.036;2022-09-28T04:41:06;98491.73;;;11.13;91.76
35507;BME280;36461;52.018;21.036;2022-09-28T04:43:33;98494.75;;;11.07;91.88
35507;BME280;36461;52.018;21.036;2022-09-28T04:46:00;98491.30;;;11.06;92.06
35507;BME280;36461;52.018;21.036;2022-09-28T04:48:29;98493.66;;;11.04;92.05
35507;BME280;36461;52.018;21.036;2022-09-28T04:51:10;98494.59;;;11.03;92.14
35507;BME280;36461;52.018;21.036;2022-09-28T04:53:37;98489.39;;;11.03;92.17
35507;BME280;36461;52.018;21.036;2022-09-28T04:56:07;98499.41;;;11.02;92.08
35507;BME280;36461;52.018;21.036;2022-09-28T04:58:39;98501.08;;;11.03;92.06
35507;BME280;36461;52.018;21.036;2022-09-28T05:01:07;98506.98;;;11.05;92.29
35507;BME280;36461;52.018;21.036;2022-09-28T05:03:55;98498.17;;;11.07;92.24
35507;BME280;36461;52.018;21.036;2022-09-28T05:06:40;98505.95;;;11.07;91.90
35507;BME280;36461;52.018;21.036;2022-09-28T05:09:07;98497.72;;;11.08;91.99
35507;BME280;36461;52.018;21.036;2022-09-28T05:11:34;98499.63;;;11.12;92.10
35507;BME280;36461;52.018;21.036;2022-09-28T05:14:03;98498.23;;;11.13;91.97
35507;BME280;36461;52.018;21.036;2022-09-28T05:16:31;98495.63;;;11.13;91.95
35507;BME280;36461;52.018;21.036;2022-09-28T05:19:16;98506.39;;;11.14;92.01
35507;BME280;36461;52.018;21.036;2022-09-28T05:21:44;98503.04;;;11.19;92.14
35507;BME280;36461;52.018;21.036;2022-09-28T05:24:11;98499.63;;;11.19;91.80
35507;BME280;36461;52.018;21.036;2022-09-28T05:26:39;98501.02;;;11.17;91.90
35507;BME280;36461;52.018;21.036;2022-09-28T05:29:07;98501.84;;;11.18;91.56
35507;BME280;36461;52.018;21.036;2022-09-28T05:31:51;98500.75;;;11.15;91.26
35507;BME280;36461;52.018;21.036;2022-09-28T05:34:21;98497.30;;;11.14;91.32
35507;BME280;36461;52.018;21.036;2022-09-28T05:36:47;98506.87;;;11.14;91.09
35507;BME280;36461;52.018;21.036;2022-09-28T05:39:15;98510.50;;;11.11;91.02
35507;BME280;36461;52.018;21.036;2022-09-28T05:41:44;98515.21;;;11.12;90.64
35507;BME280;36461;52.018;21.036;2022-09-28T05:44:11;98522.94;;;11.06;90.47
35507;BME280;36461;52.018;21.036;2022-09-28T05:46:37;98532.03;;;11.06;90.33
35507;BME280;36461;52.018;21.036;2022-09-28T05:49:04;98533.98;;;11.02;90.00
35507;BME280;36461;52.018;21.036;2022-09-28T05:51:30;98542.82;;;11.00;89.86
35507;BME280;36461;52.018;21.036;2022-09-28T05:53:57;98546.85;;;11.11;90.28
35507;BME280;36461;52.018;21.036;2022-09-28T05:56:25;98542.74;;;11.21;90.52
35507;BME280;36461;52.018;21.036;2022-09-28T05:58:52;98543.79;;;11.32;90.59
35507;BME280;36461;52.018;21.036;2022-09-28T06:01:20;98548.88;;;11.33;90.20
35507;BME280;36461;52.018;21.036;2022-09-28T06:03:48;98551.30;;;11.36;90.20
35507;BME280;36461;52.018;21.036;2022-09-28T06:06:15;98556.45;;;11.44;90.45
35507;BME280;36461;52.018;21.036;2022-09-28T06:08:44;98554.02;;;11.48;90.27
35507;BME280;36461;52.018;21.036;2022-09-28T06:11:30;98555.03;;;11.52;90.23
35507;BME280;36461;52.018;21.036;2022-09-28T06:13:58;98559.09;;;11.56;90.12
35507;BME280;36461;52.018;21.036;2022-09-28T06:16:27;98559.87;;;11.64;90.12
35507;BME280;36461;52.018;21.036;2022-09-28T06:18:54;98555.68;;;11.69;89.70
35507;BME280;36461;52.018;21.036;2022-09-28T06:21:34;98547.65;;;11.79;89.51
35507;BME280;36461;52.018;21.036;2022-09-28T06:24:01;98563.72;;;11.91;89.46
35507;BME280;36461;52.018;21.036;2022-09-28T06:26:29;98561.25;;;12.03;89.11
35507;BME280;36461;52.018;21.036;2022-09-28T06:28:56;98556.20;;;12.07;88.63
35507;BME280;36461;52.018;21.036;2022-09-28T06:31:22;98555.91;;;12.12;88.50
35507;BME280;36461;52.018;21.036;2022-09-28T06:33:50;98560.41;;;12.15;88.38
35507;BME280;36461;52.018;21.036;2022-09-28T06:36:17;98558.18;;;12.16;88.55
35507;BME280;36461;52.018;21.036;2022-09-28T06:38:45;98564.20;;;12.30;88.70
35507;BME280;36461;52.018;21.036;2022-09-28T06:41:13;98562.38;;;12.24;88.02
35507;BME280;36461;52.018;21.036;2022-09-28T06:43:40;98565.31;;;12.20;87.93
35507;BME280;36461;52.018;21.036;2022-09-28T06:46:25;98562.64;;;12.27;88.19
35507;BME280;36461;52.018;21.036;2022-09-28T06:49:02;98566.06;;;12.40;88.17
35507;BME280;36461;52.018;21.036;2022-09-28T06:51:49;98563.53;;;12.46;87.56
35507;BME280;36461;52.018;21.036;2022-09-28T06:54:30;98563.64;;;12.63;87.62
35507;BME280;36461;52.018;21.036;2022-09-28T06:56:59;98568.17;;;12.67;86.93
35507;BME280;36461;52.018;21.036;2022-09-28T06:59:25;98569.91;;;12.79;86.70
35507;BME280;36461;52.018;21.036;2022-09-28T07:01:52;98573.30;;;12.92;86.32
35507;BME280;36461;52.018;21.036;2022-09-28T07:04:23;98569.02;;;13.10;86.05
35507;BME280;36461;52.018;21.036;2022-09-28T07:07:09;98571.92;;;13.24;85.46
35507;BME280;36461;52.018;21.036;2022-09-28T07:09:53;98580.48;;;13.26;84.22
35507;BME280;36461;52.018;21.036;2022-09-28T07:12:22;98582.34;;;13.24;83.97
35507;BME280;36461;52.018;21.036;2022-09-28T07:14:51;98584.17;;;13.10;83.18
35507;BME280;36461;52.018;21.036;2022-09-28T07:17:23;98576.02;;;13.09;83.50
35507;BME280;36461;52.018;21.036;2022-09-28T07:19:50;98582.31;;;12.94;83.27
35507;BME280;36461;52.018;21.036;2022-09-28T07:22:18;98577.16;;;12.81;83.26
35507;BME280;36461;52.018;21.036;2022-09-28T07:24:46;98574.97;;;12.75;83.54
35507;BME280;36461;52.018;21.036;2022-09-28T07:27:18;98574.04;;;12.76;83.79
35507;BME280;36461;52.018;21.036;2022-09-28T07:29:55;98575.47;;;12.62;83.07
35507;BME280;36461;52.018;21.036;2022-09-28T07:32:34;98575.77;;;12.38;82.23
35507;BME280;36461;52.018;21.036;2022-09-28T07:35:04;98575.72;;;12.33;83.11
35507;BME280;36461;52.018;21.036;2022-09-28T07:37:38;98579.86;;;12.35;83.66
35507;BME280;36461;52.018;21.036;2022-09-28T07:40:05;98583.28;;;12.49;84.20
35507;BME280;36461;52.018;21.036;2022-09-28T07:42:51;98581.11;;;12.74;84.36
35507;BME280;36461;52.018;21.036;2022-09-28T07:45:18;98584.63;;;12.86;84.26
35507;BME280;36461;52.018;21.036;2022-09-28T07:47:54;98585.00;;;13.05;84.51
35507;BME280;36461;52.018;21.036;2022-09-28T07:50:28;98585.34;;;13.31;84.94
35507;BME280;36461;52.018;21.036;2022-09-28T07:53:00;98584.64;;;13.47;83.98
35507;BME280;36461;52.018;21.036;2022-09-28T07:55:31;98594.59;;;13.53;83.00
35507;BME280;36461;52.018;21.036;2022-09-28T07:58:11;98596.52;;;13.57;82.85
35507;BME280;36461;52.018;21.036;2022-09-28T08:00:49;98601.75;;;13.63;82.45
35507;BME280;36461;52.018;21.036;2022-09-28T08:03:17;98607.22;;;13.71;82.68
35507;BME280;36461;52.018;21.036;2022-09-28T08:05:44;98606.53;;;13.74;82.52
35507;BME280;36461;52.018;21.036;2022-09-28T08:08:12;98604.69;;;13.93;82.90
35507;BME280;36461;52.018;21.036;2022-09-28T08:10:43;98602.37;;;14.07;82.47
35507;BME280;36461;52.018;21.036;2022-09-28T08:13:28;98603.92;;;14.21;81.80
35507;BME280;36461;52.018;21.036;2022-09-28T08:16:14;98605.59;;;14.39;81.51
35507;BME280;36461;52.018;21.036;2022-09-28T08:18:47;98603.70;;;14.53;80.28
35507;BME280;36461;52.018;21.036;2022-09-28T08:21:14;98602.44;;;14.64;80.30
35507;BME280;36461;52.018;21.036;2022-09-28T08:23:59;98605.87;;;14.76;79.39
35507;BME280;36461;52.018;21.036;2022-09-28T08:26:26;98611.69;;;14.85;78.91
35507;BME280;36461;52.018;21.036;2022-09-28T08:28:54;98609.28;;;14.88;78.03
35507;BME280;36461;52.018;21.036;2022-09-28T08:31:34;98604.19;;;14.86;77.69
35507;BME280;36461;52.018;21.036;2022-09-28T08:34:03;98603.83;;;14.97;78.16
35507;BME280;36461;52.018;21.036;2022-09-28T08:36:49;98607.13;;;15.10;78.54
35507;BME280;36461;52.018;21.036;2022-09-28T08:39:34;98608.65;;;15.18;77.57
35507;BME280;36461;52.018;21.036;2022-09-28T08:45:22;98610.90;;;15.17;76.33
35507;BME280;36461;52.018;21.036;2022-09-28T08:48:12;98605.45;;;15.20;76.30
35507;BME280;36461;52.018;21.036;2022-09-28T08:51:06;98602.45;;;15.25;76.23
35507;BME280;36461;52.018;21.036;2022-09-28T08:56:20;98605.16;;;15.40;75.74
35507;BME280;36461;52.018;21.036;2022-09-28T08:58:43;98601.59;;;15.36;74.98
35507;BME280;36461;52.018;21.036;2022-09-28T09:01:12;98599.58;;;15.28;75.36
35507;BME280;36461;52.018;21.036;2022-09-28T09:03:43;98599.33;;;15.37;75.56
35507;BME280;36461;52.018;21.036;2022-09-28T09:06:23;98595.72;;;15.49;75.33
35507;BME280;36461;52.018;21.036;2022-09-28T09:17:30;98608.20;;;15.51;73.05
35507;BME280;36461;52.018;21.036;2022-09-28T09:20:14;98611.58;;;15.31;72.09
35507;BME280;36461;52.018;21.036;2022-09-28T09:22:48;98613.06;;;15.06;71.68
35507;BME280;36461;52.018;21.036;2022-09-28T09:25:17;98612.27;;;14.83;71.96
35507;BME280;36461;52.018;21.036;2022-09-28T09:27:50;98608.71;;;14.73;72.32
35507;BME280;36461;52.018;21.036;2022-09-28T09:30:40;98612.17;;;14.73;72.52
35507;BME280;36461;52.018;21.036;2022-09-28T09:47:26;98618.97;;;14.18;72.41
35507;BME280;36461;52.018;21.036;2022-09-28T09:53:04;98625.44;;;13.95;72.71
35507;BME280;36461;52.018;21.036;2022-09-28T09:55:30;98627.92;;;13.91;72.87
35507;BME280;36461;52.018;21.036;2022-09-28T09:58:20;98621.64;;;13.93;73.23
35507;BME280;36461;52.018;21.036;2022-09-28T10:00:54;98627.95;;;13.97;73.38
35507;BME280;36461;52.018;21.036;2022-09-28T10:03:27;98631.56;;;14.18;74.02
35507;BME280;36461;52.018;21.036;2022-09-28T10:05:58;98622.80;;;14.36;73.29
35507;BME280;36461;52.018;21.036;2022-09-28T10:08:33;98627.20;;;14.36;72.78
35507;BME280;36461;52.018;21.036;2022-09-28T10:13:40;98634.88;;;14.26;71.85
35507;BME280;36461;52.018;21.036;2022-09-28T10:16:09;98628.59;;;14.23;71.62
35507;BME280;36461;52.018;21.036;2022-09-28T10:18:39;98635.97;;;14.23;71.42
35507;BME280;36461;52.018;21.036;2022-09-28T10:21:24;98637.52;;;14.43;71.79
35507;BME280;36461;52.018;21.036;2022-09-28T10:23:57;98638.17;;;14.69;71.72
35507;BME280;36461;52.018;21.036;2022-09-28T10:26:28;98628.89;;;14.82;70.74
35507;BME280;36461;52.018;21.036;2022-09-28T10:29:04;98628.77;;;14.95;70.76
35507;BME280;36461;52.018;21.036;2022-09-28T10:31:46;98629.58;;;15.01;70.00
35507;BME280;36461;52.018;21.036;2022-09-28T10:34:26;98633.84;;;15.19;69.60
35507;BME280;36461;52.018;21.036;2022-09-28T10:36:57;98622.73;;;15.38;69.53
35507;BME280;36461;52.018;21.036;2022-09-28T10:39:28;98626.52;;;15.72;69.67
35507;BME280;36461;52.018;21.036;2022-09-28T10:42:05;98620.14;;;15.98;67.72
35507;BME280;36461;52.018;21.036;2022-09-28T10:44:46;98623.26;;;16.13;68.24
35507;BME280;36461;52.018;21.036;2022-09-28T10:47:06;98626.23;;;16.35;68.51
35507;BME280;36461;52.018;21.036;2022-09-28T10:49:38;98634.44;;;16.36;67.76
35507;BME280;36461;52.018;21.036;2022-09-28T10:52:16;98631.20;;;16.22;67.21
35507;BME280;36461;52.018;21.036;2022-09-28T10:54:54;98624.47;;;16.08;66.63
35507;BME280;36461;52.018;21.036;2022-09-28T10:57:29;98622.89;;;15.96;67.27
35507;BME280;36461;52.018;21.036;2022-09-28T11:00:04;98613.41;;;15.89;66.15
35507;BME280;36461;52.018;21.036;2022-09-28T11:02:36;98611.23;;;15.94;65.31
35507;BME280;36461;52.018;21.036;2022-09-28T11:05:17;98617.65;;;15.96;66.03
35507;BME280;36461;52.018;21.036;2022-09-28T11:07:45;98616.30;;;16.02;65.51
35507;BME280;36461;52.018;21.036;2022-09-28T11:10:19;98618.56;;;16.22;65.65
35507;BME280;36461;52.018;21.036;2022-09-28T11:12:47;98609.55;;;16.51;64.70
35507;BME280;36461;52.018;21.036;2022-09-28T11:15:17;98613.65;;;16.59;63.61
35507;BME280;36461;52.018;21.036;2022-09-28T11:17:46;98614.83;;;16.61;62.93
35507;BME280;36461;52.018;21.036;2022-09-28T11:20:32;98615.67;;;16.61;62.91
35507;BME280;36461;52.018;21.036;2022-09-28T11:22:46;98606.09;;;16.82;63.69
35507;BME280;36461;52.018;21.036;2022-09-28T11:33:30;98613.50;;;17.07;61.76
35507;BME280;36461;52.018;21.036;2022-09-28T11:41:53;98618.16;;;16.63;62.94
35507;BME280;36461;52.018;21.036;2022-09-28T11:44:45;98622.20;;;16.46;62.30
35507;BME280;36461;52.018;21.036;2022-09-28T11:47:36;98628.40;;;16.30;62.61
35507;BME280;36461;52.018;21.036;2022-09-28T11:50:52;98632.09;;;16.12;62.74
35507;BME280;36461;52.018;21.036;2022-09-28T11:55:24;98639.38;;;15.81;64.03
35507;BME280;36461;52.018;21.036;2022-09-28T11:57:58;98638.63;;;15.79;64.42
35507;BME280;36461;52.018;21.036;2022-09-28T12:00:21;98635.84;;;15.65;64.29
35507;BME280;36461;52.018;21.036;2022-09-28T12:03:02;98638.69;;;15.68;64.96
35507;BME280;36461;52.018;21.036;2022-09-28T12:05:37;98634.14;;;15.81;65.34
35507;BME280;36461;52.018;21.036;2022-09-28T12:08:12;98636.59;;;15.88;65.02
35507;BME280;36461;52.018;21.036;2022-09-28T12:14:03;98643.86;;;15.79;65.02
35507;BME280;36461;52.018;21.036;2022-09-28T12:16:34;98660.40;;;15.47;65.08
35507;BME280;36461;52.018;21.036;2022-09-28T12:22:08;98678.53;;;14.18;67.61
35507;BME280;36461;52.018;21.036;2022-09-28T12:24:41;98669.17;;;13.62;67.82
35507;BME280;36461;52.018;21.036;2022-09-28T12:27:16;98660.89;;;13.38;68.99
35507;BME280;36461;52.018;21.036;2022-09-28T12:32:47;98654.26;;;13.99;71.74
35507;BME280;36461;52.018;21.036;2022-09-28T12:35:23;98644.50;;;14.31;71.61
35507;BME280;36461;52.018;21.036;2022-09-28T12:43:39;98653.76;;;14.35;71.68
35507;BME280;36461;52.018;21.036;2022-09-28T12:59:14;98625.44;;;15.04;73.38
35507;BME280;36461;52.018;21.036;2022-09-28T13:01:54;98630.44;;;14.96;73.29
35507;BME280;36461;52.018;21.036;2022-09-28T13:07:45;98629.16;;;14.68;73.61
35507;BME280;36461;52.018;21.036;2022-09-28T13:10:32;98624.38;;;14.56;73.74
35507;BME280;36461;52.018;21.036;2022-09-28T13:18:27;98627.98;;;14.19;73.60
35507;BME280;36461;52.018;21.036;2022-09-28T13:26:00;98620.26;;;14.01;74.78
35507;BME280;36461;52.018;21.036;2022-09-28T13:28:31;98616.22;;;13.97;75.21
35507;BME280;36461;52.018;21.036;2022-09-28T13:30:59;98624.05;;;13.97;75.76
35507;BME280;36461;52.018;21.036;2022-09-28T13:37:06;98623.17;;;13.85;75.39
35507;BME280;36461;52.018;21.036;2022-09-28T13:38:53;98612.86;;;13.83;76.04
35507;BME280;36461;52.018;21.036;2022-09-28T13:41:22;98616.41;;;13.82;76.39
35507;BME280;36461;52.018;21.036;2022-09-28T13:53:03;98619.02;;;13.34;76.68
35507;BME280;36461;52.018;21.036;2022-09-28T13:55:13;98616.22;;;13.24;77.16
35507;BME280;36461;52.018;21.036;2022-09-28T14:00:49;98619.68;;;13.06;77.25
35507;BME280;36461;52.018;21.036;2022-09-28T14:06:04;98607.70;;;13.22;77.73
35507;BME280;36461;52.018;21.036;2022-09-28T14:08:43;98604.57;;;13.35;78.03
35507;BME280;36461;52.018;21.036;2022-09-28T14:16:41;98613.42;;;13.46;77.56
35507;BME280;36461;52.018;21.036;2022-09-28T14:19:11;98607.98;;;13.49;77.74
35507;BME280;36461;52.018;21.036;2022-09-28T14:21:47;98613.31;;;13.47;78.10
35507;BME280;36461;52.018;21.036;2022-09-28T14:29:45;98617.02;;;13.62;78.57
35507;BME280;36461;52.018;21.036;2022-09-28T14:34:57;98606.46;;;13.57;78.15
35507;BME280;36461;52.018;21.036;2022-09-28T14:37:30;98605.03;;;13.53;78.24
35507;BME280;36461;52.018;21.036;2022-09-28T14:40:28;98610.03;;;13.56;78.20
35507;BME280;36461;52.018;21.036;2022-09-28T14:59:21;98615.59;;;13.87;78.84
35507;BME280;36461;52.018;21.036;2022-09-28T15:01:56;98608.02;;;13.90;78.87
35507;BME280;36461;52.018;21.036;2022-09-28T15:04:27;98611.45;;;13.90;78.78
35507;BME280;36461;52.018;21.036;2022-09-28T15:06:54;98609.08;;;13.87;78.68
35507;BME280;36461;52.018;21.036;2022-09-28T15:09:27;98601.58;;;13.83;78.87
35507;BME280;36461;52.018;21.036;2022-09-28T15:12:13;98610.25;;;13.83;79.05
35507;BME280;36461;52.018;21.036;2022-09-28T15:14:31;98614.73;;;13.81;79.03
35507;BME280;36461;52.018;21.036;2022-09-28T15:17:00;98612.12;;;13.75;79.12
35507;BME280;36461;52.018;21.036;2022-09-28T15:22:18;98618.01;;;13.66;79.32
35507;BME280;36461;52.018;21.036;2022-09-28T15:24:55;98623.20;;;13.61;79.41
35507;BME280;36461;52.018;21.036;2022-09-28T15:27:24;98622.34;;;13.54;79.54
35507;BME280;36461;52.018;21.036;2022-09-28T15:30:00;98621.27;;;13.51;79.84
35507;BME280;36461;52.018;21.036;2022-09-28T15:32:29;98618.41;;;13.49;79.85
35507;BME280;36461;52.018;21.036;2022-09-28T15:35:07;98619.20;;;13.43;79.86
35507;BME280;36461;52.018;21.036;2022-09-28T15:37:32;98628.14;;;13.34;79.87
35507;BME280;36461;52.018;21.036;2022-09-28T15:39:57;98632.08;;;13.21;79.94
35507;BME280;36461;52.018;21.036;2022-09-28T15:42:25;98634.03;;;13.12;80.24
35507;BME280;36461;52.018;21.036;2022-09-28T15:45:02;98639.08;;;13.02;80.48
35507;BME280;36461;52.018;21.036;2022-09-28T15:47:32;98644.36;;;12.95;80.90
35507;BME280;36461;52.018;21.036;2022-09-28T15:52:38;98632.69;;;12.87;81.37
35507;BME280;36461;52.018;21.036;2022-09-28T15:57:45;98622.39;;;12.73;81.63
35507;BME280;36461;52.018;21.036;2022-09-28T16:00:27;98630.06;;;12.69;81.83
35507;BME280;36461;52.018;21.036;2022-09-28T16:03:02;98630.76;;;12.65;81.88
35507;BME280;36461;52.018;21.036;2022-09-28T16:05:41;98636.27;;;12.61;81.82
35507;BME280;36461;52.018;21.036;2022-09-28T16:08:21;98631.28;;;12.57;81.81
35507;BME280;36461;52.018;21.036;2022-09-28T16:16:36;98617.03;;;12.50;82.22
35507;BME280;36461;52.018;21.036;2022-09-28T16:19:21;98610.94;;;12.44;81.89
35507;BME280;36461;52.018;21.036;2022-09-28T16:21:50;98607.29;;;12.34;81.52
35507;BME280;36461;52.018;21.036;2022-09-28T16:24:22;98606.45;;;12.20;81.39
35507;BME280;36461;52.018;21.036;2022-09-28T16:26:54;98614.32;;;12.13;81.53
35507;BME280;36461;52.018;21.036;2022-09-28T16:37:41;98609.94;;;11.93;81.75